Latest Weather Observations for PORTABLE RFSNSW54

IDN60801

Issued at 10:52 am EST Monday 16 September 2019 (issued every 10 minutes, with the page automatically refreshed every 10 minutes)

About weather observations | Map of weather stations | Latest weather observations for NSW | Other Formats
Station Details ID: 250097 Name: PORTABLE RFSNSW54 Lat: -28.88 Lon: 152.48 Height: 4.0 m
Data from the previous 72 hours. | See also: Recent months for locations in New South Wales
Date/Time
EST
Temp
°C
App
Temp
°C
Dew
Point
°C
Rel
Hum
%
Delta-T
°C
Wind Press
QNH
hPa
Press
MSL
hPa
Rain since
9am
mm
Dir  Spd
km/h
Gust
km/h
Spd
kts
Gust
kts
16/10:30am 26.2 - 4.0 24 11.1 - - - - - - - 0.0
16/10:20am 26.0 - 4.5 25 10.8 - - - - - - - 0.0
16/10:10am 26.1 - 5.2 26 10.7 - - - - - - - 0.0
16/10:00am 25.5 - 5.6 28 10.2 - - - - - - - 0.0
16/09:50am 25.2 - 6.4 30 9.7 - - - - - - - 0.0
16/09:40am 24.7 - 7.0 32 9.2 - - - - - - - 0.0
16/09:30am 24.2 - 7.1 33 8.9 - - - - - - - 0.0
16/09:20am 23.6 - 7.1 34 8.6 - - - - - - - 0.0
16/09:10am 23.3 - 7.2 35 8.4 - - - - - - - 0.0
16/09:00am 22.8 - 7.2 36 8.1 - - - - - - - 0.0
16/08:50am 22.4 - 7.1 37 7.9 - - - - - - - 0.0
16/08:40am 21.2 - 7.4 41 7.1 - - - - - - - 0.0
16/08:30am 20.0 - 7.5 44 6.4 - - - - - - - 0.0
16/08:20am 18.2 - 7.3 49 5.5 - - - - - - - 0.0
16/08:10am 17.5 - 7.1 50 5.2 - - - - - - - 0.0
16/08:00am 17.0 - 7.2 52 4.9 - - - - - - - 0.0
16/07:50am 16.6 - 7.3 54 4.6 - - - - - - - 0.0
16/07:40am 16.0 - 7.0 55 4.4 - - - - - - - 0.0
16/07:30am 14.9 - 6.8 58 3.9 - - - - - - - 0.0
16/07:20am 14.5 - 6.9 60 3.7 - - - - - - - 0.0
16/07:10am 14.8 - 7.2 60 3.7 - - - - - - - 0.0
16/07:00am 14.9 - 7.4 61 3.7 - - - - - - - 0.0
16/06:50am 15.1 - 7.3 59 3.8 - - - - - - - 0.0
16/06:40am 13.9 - 7.5 65 3.1 - - - - - - - 0.0
16/06:30am 12.9 - 6.6 65 3.0 - - - - - - - 0.0
16/06:20am 11.9 - 6.3 68 2.6 - - - - - - - 0.0
16/06:10am 11.7 - 6.4 70 2.5 - - - - - - - 0.0
16/06:00am 11.1 - 5.9 70 2.4 - - - - - - - 0.0
16/05:50am 11.0 - 5.9 71 2.4 - - - - - - - 0.0
16/05:40am 11.0 - 5.8 70 2.4 - - - - - - - 0.0
16/05:30am 11.2 - 5.9 70 2.5 - - - - - - - 0.0
16/05:20am 11.8 - 5.6 66 2.9 - - - - - - - 0.0
16/05:10am 11.7 - 5.7 66 2.8 - - - - - - - 0.0
16/05:00am 11.4 - 5.6 67 2.7 - - - - - - - 0.0
16/04:50am 11.0 - 5.6 69 2.5 - - - - - - - 0.0
16/04:40am 11.0 - 5.6 69 2.5 - - - - - - - 0.0
16/04:30am 11.0 - 5.3 68 2.6 - - - - - - - 0.0
16/04:20am 10.9 - 5.4 69 2.5 - - - - - - - 0.0
16/04:10am 10.6 - 5.3 70 2.4 - - - - - - - 0.0
16/04:00am 10.6 - 5.3 70 2.4 - - - - - - - 0.0
16/03:50am 10.6 - 5.3 70 2.4 - - - - - - - 0.0
16/03:40am 10.9 - 5.5 69 2.5 - - - - - - - 0.0
16/03:30am 11.0 - 5.6 69 2.5 - - - - - - - 0.0
16/03:20am 10.9 - 5.6 70 2.4 - - - - - - - 0.0
16/03:10am 10.6 - 5.5 71 2.3 - - - - - - - 0.0
16/03:00am 10.7 - 5.4 70 2.4 - - - - - - - 0.0
16/02:50am 10.8 - 5.4 69 2.5 - - - - - - - 0.0
16/02:40am 11.1 - 5.8 70 2.5 - - - - - - - 0.0
16/02:30am 11.1 - 5.4 68 2.6 - - - - - - - 0.0
16/02:20am 11.1 - 5.4 68 2.6 - - - - - - - 0.0
16/02:10am 11.1 - 5.5 68 2.6 - - - - - - - 0.0
16/02:00am 10.9 - 5.6 70 2.4 - - - - - - - 0.0
16/01:50am 11.0 - 5.8 70 2.4 - - - - - - - 0.0
16/01:40am 11.3 - 6.0 70 2.5 - - - - - - - 0.0
16/01:30am 11.5 - 5.9 68 2.6 - - - - - - - 0.0
16/01:20am 11.6 - 6.1 69 2.6 - - - - - - - 0.0
16/01:10am 11.8 - 6.1 68 2.7 - - - - - - - 0.0
16/01:00am 12.0 - 6.2 67 2.7 - - - - - - - 0.0
16/12:50am 12.2 - 6.4 67 2.7 - - - - - - - 0.0
16/12:40am 12.5 - 6.3 66 2.9 - - - - - - - 0.0
16/12:30am 12.4 - 6.1 65 3.0 - - - - - - - 0.0
16/12:20am 12.4 - 6.1 65 3.0 - - - - - - - 0.0
16/12:10am 12.2 - 5.8 65 3.0 - - - - - - - 0.0
16/12:00am 12.6 - 5.6 62 3.3 - - - - - - - 0.0
 
Date/Time
EST
Temp
°C
App
Temp
°C
Dew
Point
°C
Rel
Hum
%
Delta-T
°C
Wind Press
QNH
hPa
Press
MSL
hPa
Rain since
9am
mm
Dir  Spd
km/h
Gust
km/h
Spd
kts
Gust
kts
15/11:50pm 12.8 - 5.9 63 3.2 - - - - - - - 0.0
15/11:40pm 12.8 - 5.7 62 3.3 - - - - - - - 0.0
15/11:30pm 12.8 - 5.4 60 3.4 - - - - - - - 0.0
15/11:20pm 13.2 - 5.3 58 3.7 - - - - - - - 0.0
15/11:10pm 13.3 - 5.5 59 3.7 - - - - - - - 0.0
15/11:00pm 13.6 - 5.0 56 4.0 - - - - - - - 0.0
15/10:50pm 13.5 - 5.5 58 3.8 - - - - - - - 0.0
15/10:40pm 13.9 - 5.4 56 4.0 - - - - - - - 0.0
15/10:30pm 14.3 - 5.4 55 4.2 - - - - - - - 0.0
15/10:20pm 14.2 - 5.5 56 4.1 - - - - - - - 0.0
15/10:10pm 14.4 - 6.4 58 3.9 - - - - - - - 0.0
15/10:00pm 14.6 - 7.5 62 3.5 - - - - - - - 0.0
15/09:50pm 14.6 - 7.7 63 3.4 - - - - - - - 0.0
15/09:40pm 14.7 - 7.7 63 3.5 - - - - - - - 0.0
15/09:30pm 14.9 - 8.0 63 3.4 - - - - - - - 0.0
15/09:20pm 15.2 - 7.4 59 3.9 - - - - - - - 0.0
15/09:10pm 15.4 - 7.1 57 4.1 - - - - - - - 0.0
15/09:00pm 15.7 - 7.0 56 4.3 - - - - - - - 0.0
15/08:50pm 16.0 - 7.5 57 4.2 - - - - - - - 0.0
15/08:40pm 16.3 - 7.2 55 4.5 - - - - - - - 0.0
15/08:30pm 16.6 - 7.6 55 4.5 - - - - - - - 0.0
15/08:20pm 17.0 - 8.2 56 4.5 - - - - - - - 0.0
15/08:10pm 17.2 - 6.8 50 5.2 - - - - - - - 0.0
15/08:00pm 17.5 - 7.5 52 5.0 - - - - - - - 0.0
15/07:50pm 17.7 - 5.8 45 5.8 - - - - - - - 0.0
15/07:40pm 18.2 - 6.5 46 5.8 - - - - - - - 0.0
15/07:30pm 19.0 - 6.7 44 6.2 - - - - - - - 0.0
15/07:20pm 19.5 - 5.9 41 6.7 - - - - - - - 0.0
15/07:00pm 20.2 - 4.5 35 7.6 - - - - - - - 0.0
15/06:50pm 20.5 - 4.7 35 7.7 - - - - - - - 0.0
15/06:40pm 21.0 - 4.1 33 8.2 - - - - - - - 0.0
15/06:30pm 21.5 - 4.1 32 8.4 - - - - - - - 0.0
15/06:20pm 21.7 - 4.0 31 8.6 - - - - - - - 0.0
15/06:10pm 22.0 - 4.0 30 8.7 - - - - - - - 0.0
15/06:00pm 22.5 - 3.8 29 9.1 - - - - - - - 0.0
15/05:50pm 22.8 - 4.0 29 9.2 - - - - - - - 0.0
15/05:40pm 23.4 - 4.0 28 9.5 - - - - - - - 0.0
15/05:30pm 24.2 - 3.7 26 10.0 - - - - - - - 0.0
15/05:20pm 25.0 - 3.1 24 10.7 - - - - - - - 0.0
15/05:10pm 25.6 - 2.5 22 11.2 - - - - - - - 0.0
15/05:00pm 25.8 - 2.4 22 11.3 - - - - - - - 0.0
15/04:50pm 26.0 - 2.0 21 11.5 - - - - - - - 0.0
15/04:40pm 26.3 - 2.1 20 11.7 - - - - - - - 0.0
15/04:30pm 26.6 - 2.1 20 11.8 - - - - - - - 0.0
15/04:20pm 26.8 - 2.0 20 12.0 - - - - - - - 0.0
15/04:10pm 26.9 - 1.5 19 12.2 - - - - - - - 0.0
15/04:00pm 26.9 - 1.1 18 12.3 - - - - - - - 0.0
15/03:50pm 27.3 - 1.3 18 12.5 - - - - - - - 0.0
15/03:40pm 27.7 - 1.3 18 12.7 - - - - - - - 0.0
15/03:30pm 28.1 - 1.6 18 12.8 - - - - - - - 0.0
15/03:20pm 28.8 - 0.9 16 13.4 - - - - - - - 0.0
15/03:10pm 28.6 - 0.7 16 13.3 - - - - - - - 0.0
15/03:00pm 28.5 - 0.7 16 13.3 - - - - - - - 0.0
15/02:50pm 28.7 - 0.8 16 13.4 - - - - - - - 0.0
15/02:40pm 28.9 - 0.9 16 13.5 - - - - - - - 0.0
15/02:30pm 28.4 - 0.7 16 13.2 - - - - - - - 0.0
15/02:20pm 28.8 - 0.5 16 13.5 - - - - - - - 0.0
15/02:10pm 28.4 - 0.6 16 13.3 - - - - - - - 0.0
15/02:00pm 27.9 - 1.6 18 12.7 - - - - - - - 0.0
15/01:50pm 28.1 - 1.8 18 12.8 - - - - - - - 0.0
15/01:40pm 27.6 - 1.0 18 12.7 - - - - - - - 0.0
15/01:30pm 27.9 - 1.1 17 12.8 - - - - - - - 0.0
15/01:20pm 27.3 - 0.9 18 12.6 - - - - - - - 0.0
15/01:10pm 27.6 - 2.7 20 12.3 - - - - - - - 0.0
15/01:00pm 27.7 - 4.5 22 11.8 - - - - - - - 0.0
15/12:50pm 27.3 - 4.8 23 11.5 - - - - - - - 0.0
15/12:40pm 26.3 - 6.8 29 10.2 - - - - - - - 0.0
15/12:30pm 26.0 - 6.8 29 10.1 - - - - - - - 0.0
15/12:20pm 25.5 - 7.2 31 9.6 - - - - - - - 0.0
15/12:10pm 24.9 - 7.7 33 9.1 - - - - - - - 0.0
15/12:00pm 24.5 - 7.5 33 8.9 - - - - - - - 0.0
15/11:50am 25.3 - 7.5 32 9.4 - - - - - - - 0.0
15/11:40am 25.0 - 8.7 35 8.8 - - - - - - - 0.0
15/11:30am 24.2 - 8.3 36 8.5 - - - - - - - 0.0
15/11:20am 23.5 - 9.2 40 7.7 - - - - - - - 0.0
15/11:10am 23.3 - 9.4 41 7.5 - - - - - - - 0.0
15/11:00am 23.4 - 9.4 41 7.6 - - - - - - - 0.0
15/10:50am 22.9 - 9.5 42 7.2 - - - - - - - 0.0
15/10:40am 22.2 - 9.2 43 7.0 - - - - - - - 0.0
15/10:30am 21.1 - 9.5 47 6.2 - - - - - - - 0.0
15/10:20am 20.8 - 9.6 48 6.0 - - - - - - - 0.0
15/10:10am 20.2 - 9.6 50 5.7 - - - - - - - 0.0
15/10:00am 19.8 - 9.7 52 5.4 - - - - - - - 0.0
15/09:50am 19.3 - 9.8 54 5.1 - - - - - - - 0.0
15/09:40am 19.0 - 9.5 54 5.0 - - - - - - - 0.0
15/09:30am 18.1 - 9.9 58 4.3 - - - - - - - 0.0
15/09:20am 17.9 - 10.0 60 4.2 - - - - - - - 0.0
15/09:10am 17.6 - 9.7 60 4.2 - - - - - - - 0.0
15/09:00am 17.4 - 9.6 60 4.1 - - - - - - - 0.0
15/08:50am 17.0 - 9.8 62 3.8 - - - - - - - 0.0
15/08:40am 16.5 - 9.4 63 3.7 - - - - - - - 0.0
15/08:30am 16.1 - 8.9 62 3.7 - - - - - - - 0.0
15/08:20am 15.7 - 9.0 64 3.4 - - - - - - - 0.0
15/08:10am 15.5 - 8.8 64 3.4 - - - - - - - 0.0
15/08:00am 15.2 - 8.5 64 3.4 - - - - - - - 0.0
15/07:50am 14.7 - 8.4 66 3.2 - - - - - - - 0.0
15/07:40am 13.8 - 8.0 68 2.9 - - - - - - - 0.0
15/07:30am 12.9 - 8.1 72 2.4 - - - - - - - 0.0
15/07:20am 12.4 - 7.8 73 2.2 - - - - - - - 0.0
15/07:10am 11.8 - 7.9 77 1.9 - - - - - - - 0.0
15/07:00am 11.4 - 7.8 78 1.7 - - - - - - - 0.0
15/06:50am 10.8 - 7.9 82 1.4 - - - - - - - 0.0
15/06:40am 10.1 - 7.9 86 1.1 - - - - - - - 0.0
15/06:30am 9.5 - 7.4 87 1.0 - - - - - - - 0.0
15/06:20am 9.3 - 7.1 86 1.0 - - - - - - - 0.0
15/06:10am 9.3 - 7.2 87 1.0 - - - - - - - 0.0
15/06:00am 9.5 - 7.2 85 1.1 - - - - - - - 0.0
15/05:50am 9.4 - 7.0 85 1.1 - - - - - - - 0.0
15/05:40am 9.6 - 7.2 85 1.1 - - - - - - - 0.0
15/05:30am 9.7 - 7.2 84 1.2 - - - - - - - 0.0
15/05:20am 9.8 - 7.1 83 1.3 - - - - - - - 0.0
15/05:10am 10.0 - 7.1 82 1.4 - - - - - - - 0.0
15/05:00am 10.3 - 7.3 82 1.4 - - - - - - - 0.0
15/04:50am 10.3 - 7.2 81 1.5 - - - - - - - 0.0
15/04:40am 10.5 - 7.4 81 1.5 - - - - - - - 0.0
15/04:30am 10.5 - 7.2 80 1.6 - - - - - - - 0.0
15/04:20am 10.4 - 7.1 80 1.6 - - - - - - - 0.0
15/04:10am 10.6 - 6.7 77 1.8 - - - - - - - 0.0
15/04:00am 10.7 - 6.8 77 1.8 - - - - - - - 0.0
15/03:50am 11.0 - 6.8 75 2.0 - - - - - - - 0.0
15/03:40am 11.2 - 6.5 73 2.2 - - - - - - - 0.0
15/03:30am 11.4 - 6.6 72 2.3 - - - - - - - 0.0
15/03:20am 11.8 - 6.7 71 2.4 - - - - - - - 0.0
15/03:10am 12.0 - 6.5 69 2.6 - - - - - - - 0.0
15/03:00am 12.5 - 7.2 70 2.6 - - - - - - - 0.0
15/02:50am 12.7 - 6.9 68 2.8 - - - - - - - 0.0
15/02:40am 13.1 - 7.1 67 2.9 - - - - - - - 0.0
15/02:30am 13.5 - 6.8 64 3.2 - - - - - - - 0.0
15/02:20am 13.8 - 6.4 61 3.5 - - - - - - - 0.0
15/02:10am 14.0 - 6.0 58 3.8 - - - - - - - 0.0
15/02:00am 14.1 - 6.0 58 3.9 - - - - - - - 0.0
15/01:50am 14.2 - 6.1 58 3.9 - - - - - - - 0.0
15/01:40am 14.3 - 5.7 56 4.1 - - - - - - - 0.0
15/01:30am 14.4 - 5.5 55 4.2 - - - - - - - 0.0
15/01:20am 14.4 - 6.4 58 3.9 - - - - - - - 0.0
15/01:10am 14.4 - 6.0 57 4.0 - - - - - - - 0.0
15/01:00am 14.4 - 6.6 59 3.8 - - - - - - - 0.0
15/12:50am 14.4 - 5.9 56 4.0 - - - - - - - 0.0
15/12:40am 14.5 - 6.0 56 4.1 - - - - - - - 0.0
15/12:30am 14.5 - 6.7 59 3.8 - - - - - - - 0.0
15/12:20am 14.6 - 6.6 58 3.9 - - - - - - - 0.0
15/12:10am 14.7 - 6.3 57 4.0 - - - - - - - 0.0
15/12:00am 14.7 - 5.8 55 4.2 - - - - - - - 0.0
 
Date/Time
EST
Temp
°C
App
Temp
°C
Dew
Point
°C
Rel
Hum
%
Delta-T
°C
Wind Press
QNH
hPa
Press
MSL
hPa
Rain since
9am
mm
Dir  Spd
km/h
Gust
km/h
Spd
kts
Gust
kts
14/11:50pm 14.7 - 5.2 53 4.5 - - - - - - - 0.0
14/11:40pm 14.7 - 5.3 53 4.4 - - - - - - - 0.0
14/11:30pm 14.6 - 4.9 52 4.5 - - - - - - - 0.0
14/11:20pm 14.6 - 5.2 53 4.4 - - - - - - - 0.0
14/11:10pm 14.6 - 5.3 53 4.4 - - - - - - - 0.0
14/11:00pm 14.6 - 5.0 52 4.5 - - - - - - - 0.0
14/10:50pm 14.6 - 5.6 54 4.3 - - - - - - - 0.0
14/10:40pm 14.6 - 5.9 56 4.2 - - - - - - - 0.0
14/10:30pm 14.6 - 4.9 52 4.5 - - - - - - - 0.0
14/10:20pm 14.5 - 5.0 53 4.4 - - - - - - - 0.0
14/10:10pm 14.5 - 5.3 54 4.3 - - - - - - - 0.0
14/10:00pm 14.4 - 5.3 54 4.3 - - - - - - - 0.0
14/09:50pm 14.3 - 5.3 54 4.2 - - - - - - - 0.0
14/09:40pm 14.2 - 4.9 53 4.3 - - - - - - - 0.0
14/09:30pm 14.1 - 5.1 54 4.2 - - - - - - - 0.0
14/09:20pm 14.0 - 5.2 55 4.1 - - - - - - - 0.0
14/09:10pm 13.8 - 4.7 54 4.2 - - - - - - - 0.0
14/09:00pm 13.8 - 4.8 54 4.2 - - - - - - - 0.0
14/08:50pm 13.7 - 4.5 54 4.2 - - - - - - - 0.0
14/08:40pm 13.8 - 4.5 53 4.3 - - - - - - - 0.0
14/08:30pm 14.1 - 4.9 54 4.3 - - - - - - - 0.0
14/08:20pm 14.4 - 4.7 52 4.5 - - - - - - - 0.0
14/08:10pm 14.6 - 4.4 50 4.7 - - - - - - - 0.0
14/08:00pm 14.9 - 4.2 48 4.9 - - - - - - - 0.0
14/07:50pm 15.1 - 4.0 47 5.1 - - - - - - - 0.0
14/07:40pm 15.3 - 3.4 45 5.4 - - - - - - - 0.0
14/07:30pm 15.6 - 3.5 44 5.5 - - - - - - - 0.0
14/07:20pm 15.9 - 3.1 42 5.8 - - - - - - - 0.0
14/07:10pm 16.2 - 3.1 41 6.0 - - - - - - - 0.0
14/07:00pm 16.4 - 2.8 40 6.2 - - - - - - - 0.0
14/06:50pm 16.7 - 3.0 40 6.3 - - - - - - - 0.0
14/06:40pm 17.0 - 2.5 37 6.6 - - - - - - - 0.0
14/06:30pm 17.5 - 2.1 35 6.9 - - - - - - - 0.0
14/06:20pm 17.7 - 1.5 33 7.2 - - - - - - - 0.0
14/06:10pm 17.9 - 0.9 32 7.5 - - - - - - - 0.0
14/06:00pm 18.2 - -0.4 28 8.0 - - - - - - - 0.0
14/05:50pm 18.6 - -0.8 27 8.3 - - - - - - - 0.0
14/05:40pm 19.0 - -1.5 25 8.7 - - - - - - - 0.0
14/05:30pm 19.4 - -1.6 24 8.9 - - - - - - - 0.0
14/05:20pm 19.9 - -1.7 23 9.2 - - - - - - - 0.0
14/05:10pm 20.3 - -1.5 23 9.4 - - - - - - - 0.0
14/05:00pm 20.9 - -1.1 23 9.6 - - - - - - - 0.0
14/04:50pm 21.4 - -0.7 23 9.7 - - - - - - - 0.0
14/04:40pm 22.1 - -2.2 19 10.5 - - - - - - - 0.0
14/04:30pm 22.7 - -3.5 17 11.1 - - - - - - - 0.0
14/04:20pm 23.4 - -3.0 17 11.3 - - - - - - - 0.0
14/04:10pm 24.0 - -1.7 18 11.4 - - - - - - - 0.0
14/04:00pm 25.1 - -0.9 18 11.8 - - - - - - - 0.0
14/03:50pm 27.4 - -1.3 15 13.1 - - - - - - - 0.0
14/03:40pm 29.0 - -6.9 9 15.1 - - - - - - - 0.0
14/03:30pm 29.9 - -7.0 8 15.6 - - - - - - - 0.0
14/03:20pm 30.4 - -7.6 8 15.9 - - - - - - - 0.0
14/03:10pm 30.8 - -8.1 7 16.2 - - - - - - - 0.0
14/03:00pm 31.1 - -7.4 8 16.3 - - - - - - - 0.0
14/02:50pm 31.3 - -9.4 6 16.7 - - - - - - - 0.0
14/02:40pm 30.9 - -13.0 5 16.9 - - - - - - - 0.0
14/02:30pm 30.6 - -12.2 5 16.6 - - - - - - - 0.0
14/02:20pm 30.9 - -11.6 6 16.7 - - - - - - - 0.0
14/02:10pm 30.9 - -12.5 5 16.8 - - - - - - - 0.0
14/02:00pm 30.6 - -12.6 5 16.7 - - - - - - - 0.0
14/01:50pm 30.9 - -11.7 5 16.7 - - - - - - - 0.0
14/01:40pm 30.3 - -12.3 5 16.5 - - - - - - - 0.0
14/01:30pm 30.3 - -11.9 6 16.4 - - - - - - - 0.0
14/01:20pm 30.4 - -11.6 6 16.4 - - - - - - - 0.0
14/01:10pm 30.5 - -12.2 5 16.6 - - - - - - - 0.0
14/01:00pm 30.6 - -9.8 6 16.3 - - - - - - - 0.0
14/12:50pm 30.1 - -9.7 7 16.1 - - - - - - - 0.0
14/12:40pm 30.3 - -8.4 7 16.0 - - - - - - - 0.0
14/12:30pm 30.0 - -6.5 9 15.6 - - - - - - - 0.0
14/12:20pm 29.4 - -6.3 9 15.2 - - - - - - - 0.0
14/12:10pm 28.8 - -6.4 9 14.9 - - - - - - - 0.0
14/12:00pm 28.6 - -5.0 11 14.5 - - - - - - - 0.0
14/11:50am 28.0 - -5.6 10 14.3 - - - - - - - 0.0
14/11:40am 28.1 - -6.0 10 14.4 - - - - - - - 0.0
14/11:30am 28.0 - -5.3 11 14.2 - - - - - - - 0.0
14/11:20am 27.5 - -4.7 12 13.9 - - - - - - - 0.0
14/11:10am 27.5 - -2.8 13 13.5 - - - - - - - 0.0
14/11:00am 27.3 - -1.2 15 13.1 - - - - - - - 0.0
14/10:50am 27.0 - -7.7 9 14.1 - - - - - - - 0.0
14/10:40am 26.0 - -5.9 12 13.3 - - - - - - - 0.0
14/10:30am 25.0 - -2.6 16 12.1 - - - - - - - 0.0
14/10:20am 24.8 - -0.1 19 11.4 - - - - - - - 0.0
14/10:10am 24.0 - 0.0 20 11.0 - - - - - - - 0.0
14/10:00am 23.3 - 0.4 22 10.5 - - - - - - - 0.0
14/09:50am 22.4 - 0.4 23 10.0 - - - - - - - 0.0
14/09:40am 21.2 - 4.9 34 8.0 - - - - - - - 0.0
14/09:30am 20.7 - 5.1 36 7.7 - - - - - - - 0.0
14/09:20am 19.9 - 5.0 37 7.3 - - - - - - - 0.0
14/09:10am 19.0 - 6.1 43 6.4 - - - - - - - 0.0
14/09:00am 18.3 - 6.7 46 5.8 - - - - - - - 0.0
14/08:50am 17.9 - 6.7 48 5.6 - - - - - - - 0.0
14/08:40am 17.0 - 6.8 51 5.0 - - - - - - - 0.0
14/08:30am 16.4 - 6.8 53 4.7 - - - - - - - 0.0
14/08:20am 16.1 - 7.3 56 4.4 - - - - - - - 0.0
14/08:00am 14.9 - 7.0 59 3.9 - - - - - - - 0.0
14/07:50am 13.9 - 6.3 60 3.6 - - - - - - - 0.0
14/07:40am 12.5 - 7.6 72 2.4 - - - - - - - 0.0
14/07:30am 11.2 - 6.7 74 2.1 - - - - - - - 0.0
14/07:20am 10.2 - 6.8 79 1.6 - - - - - - - 0.0
14/07:10am 9.6 - 6.3 80 1.5 - - - - - - - 0.0
14/07:00am 9.1 - 6.2 82 1.3 - - - - - - - 0.0
14/06:50am 8.5 - 6.1 85 1.1 - - - - - - - 0.0
14/06:40am 7.9 - 6.3 90 0.7 - - - - - - - 0.0
14/06:30am 7.8 - 6.5 91 0.6 - - - - - - - 0.0
14/06:20am 7.8 - 6.8 93 0.5 - - - - - - - 0.0
14/06:10am 7.7 - 6.7 93 0.5 - - - - - - - 0.0
14/06:00am 7.4 - 6.4 93 0.5 - - - - - - - 0.0
14/05:50am 7.4 - 6.3 93 0.5 - - - - - - - 0.0
14/05:40am 7.8 - 6.8 93 0.5 - - - - - - - 0.0
14/05:30am 8.0 - 7.0 93 0.5 - - - - - - - 0.0
14/05:20am 8.2 - 7.1 93 0.5 - - - - - - - 0.0
14/05:10am 8.3 - 7.2 93 0.5 - - - - - - - 0.0
14/05:00am 8.2 - 7.1 93 0.5 - - - - - - - 0.0
14/04:50am 8.0 - 6.7 91 0.6 - - - - - - - 0.0
14/04:40am 7.9 - 6.6 91 0.6 - - - - - - - 0.0
14/04:30am 8.1 - 6.6 90 0.7 - - - - - - - 0.0
14/04:20am 8.5 - 6.9 90 0.7 - - - - - - - 0.0
14/04:10am 8.7 - 7.1 90 0.7 - - - - - - - 0.0
14/04:00am 8.9 - 7.4 90 0.7 - - - - - - - 0.0
14/03:50am 8.7 - 6.9 88 0.8 - - - - - - - 0.0
14/03:40am 8.6 - 6.8 88 0.8 - - - - - - - 0.0
14/03:30am 8.6 - 6.6 87 0.9 - - - - - - - 0.0
14/03:20am 8.9 - 7.0 88 0.9 - - - - - - - 0.0
14/03:10am 9.1 - 7.2 88 0.9 - - - - - - - 0.0
14/03:00am 9.0 - 7.1 88 0.9 - - - - - - - 0.0
14/02:50am 9.0 - 7.3 89 0.8 - - - - - - - 0.0
14/02:40am 9.3 - 7.5 88 0.9 - - - - - - - 0.0
14/02:30am 9.3 - 7.6 89 0.8 - - - - - - - 0.0
14/02:20am 9.3 - 7.2 87 1.0 - - - - - - - 0.0
14/02:10am 9.2 - 7.2 87 0.9 - - - - - - - 0.0
14/02:00am 9.3 - 7.2 87 1.0 - - - - - - - 0.0
14/01:50am 9.6 - 7.6 87 1.0 - - - - - - - 0.0
14/01:40am 9.7 - 7.6 87 1.0 - - - - - - - 0.0
14/01:30am 9.7 - 7.1 84 1.2 - - - - - - - 0.0
14/01:20am 10.0 - 7.2 83 1.3 - - - - - - - 0.0
14/01:10am 9.9 - 6.9 81 1.4 - - - - - - - 0.0
14/01:00am 9.9 - 6.3 78 1.7 - - - - - - - 0.0
14/12:50am 10.0 - 6.8 80 1.5 - - - - - - - 0.0
14/12:40am 10.2 - 7.0 80 1.5 - - - - - - - 0.0
14/12:30am 10.5 - 7.0 79 1.7 - - - - - - - 0.0
14/12:20am 10.6 - 6.5 76 1.9 - - - - - - - 0.0
14/12:10am 10.8 - 7.3 79 1.7 - - - - - - - 0.0
14/12:00am 10.9 - 7.4 79 1.7 - - - - - - - 0.0
 
Date/Time
EST
Temp
°C
App
Temp
°C
Dew
Point
°C
Rel
Hum
%
Delta-T
°C
Wind Press
QNH
hPa
Press
MSL
hPa
Rain since
9am
mm
Dir  Spd
km/h
Gust
km/h
Spd
kts
Gust
kts
13/11:50pm 11.0 - 7.2 77 1.8 - - - - - - - 0.0
13/11:40pm 11.2 - 7.3 77 1.9 - - - - - - - 0.0
13/11:30pm 11.4 - 7.5 77 1.9 - - - - - - - 0.0
13/11:20pm 11.6 - 7.3 75 2.1 - - - - - - - 0.0
13/11:10pm 11.8 - 7.6 75 2.0 - - - - - - - 0.0
13/11:00pm 12.0 - 7.7 75 2.1 - - - - - - - 0.0
13/10:50pm 12.3 - 7.8 74 2.2 - - - - - - - 0.0
13/10:40pm 12.4 - 7.9 74 2.2 - - - - - - - 0.0
13/10:30pm 12.5 - 7.6 72 2.4 - - - - - - - 0.0
13/10:20pm 12.7 - 7.8 72 2.4 - - - - - - - 0.0
13/10:10pm 12.8 - 7.6 70 2.5 - - - - - - - 0.0
13/10:00pm 13.0 - 7.8 70 2.6 - - - - - - - 0.0
13/09:50pm 13.3 - 7.8 69 2.7 - - - - - - - 0.0
13/09:40pm 13.5 - 8.1 70 2.7 - - - - - - - 0.0
13/09:30pm 13.8 - 8.1 68 2.8 - - - - - - - 0.0
13/09:20pm 14.0 - 7.9 66 3.0 - - - - - - - 0.0
13/09:10pm 14.3 - 7.9 65 3.2 - - - - - - - 0.0
13/09:00pm 14.7 - 7.7 63 3.5 - - - - - - - 0.0
13/08:50pm 15.0 - 7.9 62 3.5 - - - - - - - 0.0
13/08:40pm 15.3 - 7.7 60 3.8 - - - - - - - 0.0
13/08:30pm 15.4 - 7.9 61 3.8 - - - - - - - 0.0
13/08:20pm 15.5 - 7.6 59 3.9 - - - - - - - 0.0
13/08:10pm 15.7 - 7.4 57 4.1 - - - - - - - 0.0
13/08:00pm 16.0 - 7.7 58 4.2 - - - - - - - 0.0
13/07:50pm 16.1 - 7.6 57 4.2 - - - - - - - 0.0
13/07:40pm 16.4 - 7.0 53 4.6 - - - - - - - 0.0
13/07:30pm 16.8 - 7.2 53 4.8 - - - - - - - 0.0
13/07:20pm 17.1 - 6.8 50 5.1 - - - - - - - 0.0
13/07:10pm 17.3 - 6.7 49 5.2 - - - - - - - 0.0
13/07:00pm 17.5 - 5.9 46 5.7 - - - - - - - 0.0
13/06:50pm 17.7 - 5.0 43 6.1 - - - - - - - 0.0
13/06:40pm 18.0 - 4.9 42 6.3 - - - - - - - 0.0
13/06:30pm 18.4 - 4.8 40 6.5 - - - - - - - 0.0
13/06:20pm 18.7 - 4.5 39 6.8 - - - - - - - 0.0
13/06:10pm 19.0 - 4.5 38 6.9 - - - - - - - 0.0
13/06:00pm 19.3 - 4.3 37 7.2 - - - - - - - 0.0
13/05:50pm 19.6 - 4.3 36 7.3 - - - - - - - 0.0
13/05:40pm 20.1 - 4.0 34 7.7 - - - - - - - 0.0
13/05:30pm 20.5 - 4.0 33 7.9 - - - - - - - 0.0
13/05:20pm 21.0 - 4.2 33 8.1 - - - - - - - 0.0
13/05:10pm 21.4 - 4.2 32 8.3 - - - - - - - 0.0
13/05:00pm 21.8 - 4.2 31 8.6 - - - - - - - 0.0
13/04:50pm 22.3 - 4.4 31 8.8 - - - - - - - 0.0
13/04:40pm 22.8 - 4.1 29 9.1 - - - - - - - 0.0
13/04:30pm 23.3 - 3.6 27 9.6 - - - - - - - 0.0
13/04:20pm 23.8 - 2.5 25 10.2 - - - - - - - 0.0
13/04:10pm 24.0 - 1.5 23 10.6 - - - - - - - 0.0
13/04:00pm 24.5 - 1.5 22 10.8 - - - - - - - 0.0
13/03:50pm 25.2 - -0.2 19 11.7 - - - - - - - 0.0
13/03:40pm 25.9 - -2.9 15 12.6 - - - - - - - 0.0
13/03:30pm 26.6 - -9.1 9 14.1 - - - - - - - 0.0
13/03:20pm 26.8 - -10.1 8 14.3 - - - - - - - 0.0
13/03:10pm 27.0 - -10.7 7 14.5 - - - - - - - 0.0
13/03:00pm 27.2 - -10.3 8 14.6 - - - - - - - 0.0
13/02:50pm 27.4 - -10.1 8 14.6 - - - - - - - 0.0
13/02:40pm 27.6 - -9.9 8 14.7 - - - - - - - 0.0
13/02:30pm 27.5 - -10.9 7 14.8 - - - - - - - 0.0
13/02:20pm 27.4 - -11.4 7 14.8 - - - - - - - 0.0
13/02:10pm 27.6 - -11.0 7 14.9 - - - - - - - 0.0
13/02:00pm 27.4 - -11.3 7 14.8 - - - - - - - 0.0
13/01:50pm 27.5 - -10.9 7 14.8 - - - - - - - 0.0
13/01:40pm 27.8 - -11.2 7 15.0 - - - - - - - 0.0
13/01:30pm 28.3 - -10.0 7 15.1 - - - - - - - 0.0
13/01:20pm 28.2 - -9.2 8 14.9 - - - - - - - 0.0
13/01:10pm 28.4 - -9.1 8 15.0 - - - - - - - 0.0
13/01:00pm 27.9 - -9.0 8 14.8 - - - - - - - 0.0
13/12:50pm 28.2 - -8.7 8 14.9 - - - - - - - 0.0
13/12:40pm 28.3 - -9.3 8 15.0 - - - - - - - 0.0
13/12:30pm 27.7 - -9.3 8 14.7 - - - - - - - 0.0
13/12:20pm 27.4 - -10.1 8 14.6 - - - - - - - 0.0
13/12:10pm 27.5 - -10.7 7 14.8 - - - - - - - 0.0
13/12:00pm 27.5 - -9.7 8 14.6 - - - - - - - 0.0
13/11:50am 27.8 - -11.4 7 15.0 - - - - - - - 0.0
13/11:40am 27.9 - -10.7 7 15.0 - - - - - - - 0.0
13/11:30am 27.3 - -10.9 7 14.7 - - - - - - - 0.0
13/11:20am 26.4 - -11.3 7 14.2 - - - - - - - 0.0
13/11:10am 26.3 - -10.3 8 14.1 - - - - - - - 0.0
13/11:00am 26.5 - -11.2 7 14.3 - - - - - - - 0.0

Other formats

Comma delimited format used in spreadsheet applications
http://www.bom.gov.au/fwo/IDN60801/IDN60801.99793.axf

JavaScript Object Notation format (JSON) in row-major order
http://www.bom.gov.au/fwo/IDN60801/IDN60801.99793.json

Data quality

Most of these data are generated automatically and are frequently updated. Quality checks on data are not normally performed. It is possible for incorrect values to appear. Refer to information at About Latest Weather Observations and please check the disclaimer before using these data.